Time;durP1;ratioP1;P1;durP2;ratioP2;P2;SDS_P1;SDS_P2;PMS_P1;PMS_P2;Temp;Humidity;BMP_temperature;BMP_pressure;BME280_temperature;BME280_humidity;BME280_pressure;Samples;Min_cycle;Max_cycle;Signal;HPM_P1;HPM_P2
2023/09/10 00:02:24;;;;;;;18.73;10.45;;;17.80;99.90;;;;;;4993144;28;20502;-74
2023/09/10 00:04:50;;;;;;;16.95;10.35;;;17.80;99.90;;;;;;4993024;28;20038;-74
2023/09/10 00:07:16;;;;;;;17.42;9.63;;;17.70;99.90;;;;;;4993225;28;20029;-73
2023/09/10 00:09:42;;;;;;;15.73;9.45;;;17.70;99.90;;;;;;4992704;28;20084;-73
2023/09/10 00:12:08;;;;;;;15.98;9.68;;;17.80;99.90;;;;;;4992768;28;20378;-73
2023/09/10 00:14:34;;;;;;;25.52;9.63;;;17.80;99.90;;;;;;4992785;28;20030;-73
2023/09/10 00:16:59;;;;;;;16.70;8.45;;;17.70;99.90;;;;;;4992910;28;20029;-73
2023/09/10 00:19:25;;;;;;;22.80;10.05;;;17.70;99.90;;;;;;4992818;28;20035;-73
2023/09/10 00:21:51;;;;;;;15.85;9.90;;;17.70;99.90;;;;;;4992739;28;20026;-73
2023/09/10 00:24:17;;;;;;;18.63;10.48;;;17.60;99.90;;;;;;4992953;28;20022;-73
2023/09/10 00:26:43;;;;;;;15.32;8.77;;;17.60;99.90;;;;;;4992289;28;20406;-73
2023/09/10 00:29:09;;;;;;;17.35;9.60;;;17.70;99.90;;;;;;4975248;28;20113;-74
2023/09/10 00:31:34;;;;;;;17.13;9.35;;;17.60;99.90;;;;;;4992429;28;20488;-74
2023/09/10 00:34:01;;;;;;;18.70;9.38;;;17.70;99.90;;;;;;4992605;28;20026;-74
2023/09/10 00:36:27;;;;;;;17.52;9.82;;;17.70;99.90;;;;;;4992386;28;20041;-74
2023/09/10 00:38:53;;;;;;;15.73;9.23;;;17.70;99.90;;;;;;4992375;28;20027;-74
2023/09/10 00:41:19;;;;;;;16.35;9.00;;;17.70;99.90;;;;;;4992421;28;20389;-73
2023/09/10 00:43:45;;;;;;;19.35;9.38;;;16.20;99.90;;;;;;4992195;28;20157;-74
2023/09/10 00:46:11;;;;;;;17.45;9.40;;;17.50;99.90;;;;;;4992325;28;20386;-73
2023/09/10 00:48:37;;;;;;;17.95;10.00;;;17.50;99.90;;;;;;4991866;28;20085;-74
2023/09/10 00:51:03;;;;;;;14.55;9.40;;;17.50;99.90;;;;;;4975031;28;20450;-74
2023/09/10 00:53:29;;;;;;;19.88;9.05;;;17.60;99.90;;;;;;4991890;28;20022;-73
2023/09/10 00:55:55;;;;;;;13.50;8.55;;;17.50;99.90;;;;;;4992168;28;20121;-73
2023/09/10 00:58:21;;;;;;;17.75;8.38;;;17.50;99.90;;;;;;4974676;28;20774;-74
2023/09/10 01:00:48;;;;;;;15.35;8.90;;;17.40;99.90;;;;;;4992111;28;20030;-74
2023/09/10 01:03:15;;;;;;;13.35;8.48;;;17.30;99.90;;;;;;4992057;28;20459;-73
2023/09/10 01:05:41;;;;;;;18.05;9.57;;;17.40;99.90;;;;;;4991932;28;20441;-73
2023/09/10 01:08:06;;;;;;;14.70;8.48;;;17.30;99.90;;;;;;4992778;28;20026;-73
2023/09/10 01:10:43;;;;;;;27.50;8.70;;;17.30;99.90;;;;;;4993317;28;20033;-74
2023/09/10 01:13:30;;;;;;;15.48;9.35;;;17.20;99.90;;;;;;5008859;28;20030;-73
2023/09/10 01:16:03;;;;;;;16.48;9.80;;;17.30;99.90;;;;;;4993526;28;20042;-74
2023/09/10 01:18:43;;;;;;;15.00;8.77;;;17.40;99.90;;;;;;4994201;28;20062;-73
2023/09/10 01:21:20;;;;;;;15.98;8.88;;;17.40;99.90;;;;;;4990628;28;20124;-74
2023/09/10 01:24:01;;;;;;;15.35;8.60;;;17.30;99.90;;;;;;5008711;28;20022;-73
2023/09/10 01:26:28;;;;;;;14.30;8.77;;;17.40;99.90;;;;;;5010881;28;20026;-73
2023/09/10 01:28:53;;;;;;;13.32;9.15;;;17.40;99.90;;;;;;5011359;28;20026;-73
2023/09/10 01:31:19;;;;;;;13.30;8.77;;;17.40;99.90;;;;;;4989340;28;20060;-74
2023/09/10 01:33:52;;;;;;;15.65;10.05;;;17.30;99.90;;;;;;4992729;28;20033;-73
2023/09/10 01:36:29;;;;;;;14.82;8.48;;;17.30;99.90;;;;;;5011021;28;20029;-74
2023/09/10 01:39:10;;;;;;;15.38;9.52;;;17.30;99.90;;;;;;4993474;28;20109;-74
2023/09/10 01:41:38;;;;;;;17.23;10.18;;;17.30;99.90;;;;;;4993251;28;20149;-74
2023/09/10 01:44:05;;;;;;;17.95;9.43;;;17.30;99.90;;;;;;4991564;28;20037;-73
2023/09/10 01:46:34;;;;;;;16.30;8.40;;;17.30;99.90;;;;;;4979180;28;20053;-73
2023/09/10 01:49:04;;;;;;;15.35;9.45;;;17.30;99.90;;;;;;4995653;28;20406;-73
2023/09/10 01:51:30;;;;;;;14.30;9.15;;;17.30;99.90;;;;;;4985943;28;20248;-74
2023/09/10 01:53:56;;;;;;;13.52;8.55;;;17.30;99.90;;;;;;4989860;28;20030;-74
2023/09/10 01:56:22;;;;;;;16.00;8.52;;;17.30;99.90;;;;;;5010420;28;20429;-74
2023/09/10 01:58:48;;;;;;;14.57;9.95;;;17.30;99.90;;;;;;4993317;28;20026;-74
2023/09/10 02:01:14;;;;;;;19.55;10.00;;;17.20;99.90;;;;;;4992208;28;20124;-74
2023/09/10 02:03:39;;;;;;;18.02;10.48;;;17.20;99.90;;;;;;5010740;28;20021;-73
2023/09/10 02:06:05;;;;;;;16.45;9.60;;;17.20;99.90;;;;;;4993139;28;20026;-73
2023/09/10 02:08:31;;;;;;;15.18;9.88;;;17.10;99.90;;;;;;4989065;28;20037;-73
2023/09/10 02:10:57;;;;;;;16.55;9.18;;;17.10;99.90;;;;;;4990982;28;20397;-73
2023/09/10 02:13:23;;;;;;;17.75;9.20;;;17.10;99.90;;;;;;4992377;28;20037;-73
2023/09/10 02:15:50;;;;;;;15.80;8.82;;;17.00;99.90;;;;;;4993031;28;20033;-73
2023/09/10 02:18:16;;;;;;;16.33;9.00;;;17.10;99.90;;;;;;5010274;28;20424;-73
2023/09/10 02:20:42;;;;;;;18.83;9.32;;;16.90;99.90;;;;;;4990915;28;20068;-73
2023/09/10 02:23:08;;;;;;;18.55;9.13;;;16.90;99.90;;;;;;4993383;28;20124;-73
2023/09/10 02:25:34;;;;;;;15.50;8.75;;;16.90;99.90;;;;;;5014543;28;20104;-73
2023/09/10 02:28:01;;;;;;;13.80;7.97;;;16.80;99.90;;;;;;4996100;28;20493;-73
2023/09/10 02:30:27;;;;;;;16.13;8.90;;;16.90;99.90;;;;;;5014489;28;20064;-73
2023/09/10 02:32:53;;;;;;;17.95;9.50;;;;;;;;;;4996819;28;20061;-73
2023/09/10 02:35:19;;;;;;;17.40;9.75;;;16.90;99.90;;;;;;5014368;28;20042;-72
2023/09/10 02:37:45;;;;;;;18.08;10.38;;;16.70;99.90;;;;;;4996594;28;20037;-73
2023/09/10 02:40:11;;;;;;;17.25;10.10;;;16.70;99.90;;;;;;4995935;28;20093;-73
2023/09/10 02:42:38;;;;;;;17.90;10.45;;;;;;;;;;4994332;28;20477;-73
2023/09/10 02:45:04;;;;;;;16.27;9.70;;;16.50;99.90;;;;;;5011934;28;20045;-72
2023/09/10 02:47:30;;;;;;;17.13;10.25;;;16.60;99.90;;;;;;5014176;28;20018;-73
2023/09/10 02:49:56;;;;;;;17.25;10.02;;;16.60;99.90;;;;;;5014322;28;20164;-73
2023/09/10 02:52:24;;;;;;;15.48;9.27;;;16.60;99.90;;;;;;4995652;28;20033;-73
2023/09/10 02:54:53;;;;;;;14.20;8.68;;;16.60;99.90;;;;;;5013637;28;20390;-73
2023/09/10 02:57:19;;;;;;;16.35;9.65;;;16.60;99.90;;;;;;4995697;28;20029;-73
2023/09/10 02:59:45;;;;;;;17.90;9.98;;;16.50;99.90;;;;;;4995605;28;20034;-73
2023/09/10 03:02:12;;;;;;;16.25;10.20;;;;;;;;;;4995811;28;20026;-73
2023/09/10 03:04:37;;;;;;;17.88;10.10;;;16.60;99.90;;;;;;5013772;28;20014;-73
2023/09/10 03:07:03;;;;;;;18.75;10.98;;;16.50;99.90;;;;;;5013807;28;20401;-73
2023/09/10 03:09:29;;;;;;;16.02;9.55;;;16.40;99.90;;;;;;5013522;28;20049;-73
2023/09/10 03:12:18;;;;;;;14.45;10.05;;;16.40;99.90;;;;;;4991495;28;20121;-73
2023/09/10 03:14:44;;;;;;;16.40;9.32;;;16.40;99.90;;;;;;4979155;28;20073;-73
2023/09/10 03:17:11;;;;;;;20.77;9.95;;;16.30;99.90;;;;;;5012750;28;20435;-73
2023/09/10 03:19:37;;;;;;;15.73;9.50;;;16.40;99.90;;;;;;4993544;28;20049;-73
2023/09/10 03:22:03;;;;;;;17.23;10.15;;;16.40;99.90;;;;;;4996137;28;20026;-73
2023/09/10 03:24:34;;;;;;;23.17;9.57;;;16.40;99.90;;;;;;5009800;28;20028;-73
2023/09/10 03:27:00;;;;;;;19.83;9.88;;;16.30;99.90;;;;;;5014644;28;20058;-74
2023/09/10 03:29:26;;;;;;;17.52;10.48;;;16.30;99.90;;;;;;4997318;28;20057;-73
2023/09/10 03:31:52;;;;;;;17.58;10.20;;;16.30;99.90;;;;;;5014517;28;20025;-74
2023/09/10 03:34:19;;;;;;;16.83;10.55;;;16.30;99.90;;;;;;4996268;28;20042;-72
2023/09/10 03:36:45;;;;;;;20.50;10.45;;;16.30;99.90;;;;;;5011449;28;20023;-74
2023/09/10 03:39:12;;;;;;;17.65;10.25;;;16.20;99.90;;;;;;4996893;28;20029;-73
2023/09/10 03:41:38;;;;;;;16.73;10.00;;;16.20;99.90;;;;;;4996468;28;20033;-73
2023/09/10 03:44:04;;;;;;;20.63;10.95;;;16.30;99.90;;;;;;5015428;28;20033;-74
2023/09/10 03:46:30;;;;;;;17.50;10.05;;;16.30;99.90;;;;;;5014364;28;20089;-74
2023/09/10 03:48:56;;;;;;;18.17;10.48;;;16.20;99.90;;;;;;5014878;28;20064;-73
2023/09/10 03:51:22;;;;;;;18.00;10.32;;;16.20;99.90;;;;;;4996404;28;20038;-73
2023/09/10 03:53:48;;;;;;;15.95;9.90;;;16.10;99.90;;;;;;4995841;28;20040;-74
2023/09/10 03:56:14;;;;;;;18.88;10.73;;;16.10;99.90;;;;;;5014101;28;20037;-73
2023/09/10 03:58:39;;;;;;;15.90;10.57;;;16.00;99.90;;;;;;5014517;28;20022;-73
2023/09/10 04:01:07;;;;;;;20.25;11.20;;;16.10;99.90;;;;;;4996628;28;20049;-73
2023/09/10 04:03:33;;;;;;;15.55;10.00;;;16.10;99.90;;;;;;4996800;28;20117;-73
2023/09/10 04:05:59;;;;;;;21.35;11.40;;;16.10;99.90;;;;;;4996527;28;20053;-73
2023/09/10 04:08:25;;;;;;;16.40;9.48;;;16.10;99.90;;;;;;5013807;28;20046;-73
2023/09/10 04:10:50;;;;;;;18.58;9.95;;;16.10;99.90;;;;;;5014032;28;20508;-73
2023/09/10 04:13:18;;;;;;;18.05;10.40;;;16.10;99.90;;;;;;5014008;28;20042;-73
2023/09/10 04:15:44;;;;;;;18.30;10.35;;;16.10;99.90;;;;;;5013927;28;20044;-74
2023/09/10 04:18:10;;;;;;;16.33;10.25;;;16.00;99.90;;;;;;5013988;28;20118;-72
2023/09/10 04:20:36;;;;;;;19.38;10.88;;;16.10;99.90;;;;;;4996212;28;20034;-73
2023/09/10 04:23:02;;;;;;;18.08;10.73;;;16.10;99.90;;;;;;4996299;28;20033;-73
2023/09/10 04:25:28;;;;;;;14.88;8.90;;;16.20;99.90;;;;;;4995679;28;20118;-73
2023/09/10 04:27:53;;;;;;;19.05;10.88;;;16.20;99.90;;;;;;4996000;28;20112;-72
2023/09/10 04:30:19;;;;;;;16.13;9.70;;;16.30;99.90;;;;;;4995939;28;20037;-73
2023/09/10 04:32:45;;;;;;;17.02;10.43;;;16.60;99.90;;;;;;4988508;28;20022;-73
2023/09/10 04:35:12;;;;;;;17.27;10.70;;;16.90;99.90;;;;;;4994004;28;20501;-73
2023/09/10 04:37:38;;;;;;;15.75;10.93;;;17.20;99.90;;;;;;4995991;28;20426;-73
2023/09/10 04:40:07;;;;;;;18.15;10.05;;;17.60;99.90;;;;;;4992095;28;20034;-73
2023/09/10 04:42:33;;;;;;;15.60;10.00;;;18.00;99.90;;;;;;4994461;28;20022;-73
2023/09/10 04:44:59;;;;;;;18.80;11.13;;;18.30;99.90;;;;;;4995587;28;20092;-73
2023/09/10 04:47:25;;;;;;;17.80;10.38;;;18.60;99.90;;;;;;4987452;28;20030;-73
2023/09/10 04:49:51;;;;;;;17.40;9.55;;;19.00;99.90;;;;;;4990671;28;20029;-73
2023/09/10 04:52:17;;;;;;;17.13;10.18;;;19.30;99.90;;;;;;4989430;28;20061;-73
2023/09/10 04:54:43;;;;;;;19.38;10.75;;;19.70;99.90;;;;;;5012550;28;20042;-73
2023/09/10 04:57:12;;;;;;;19.77;9.68;;;20.10;99.90;;;;;;4993602;28;20057;-73
2023/09/10 04:59:38;;;;;;;15.38;10.50;;;20.10;99.90;;;;;;4993310;28;20030;-73
2023/09/10 05:02:07;;;;;;;17.33;10.23;;;20.60;99.90;;;;;;4990557;28;20080;-73
2023/09/10 05:04:32;;;;;;;18.38;9.77;;;21.10;99.90;;;;;;4995495;28;20029;-73
2023/09/10 05:06:59;;;;;;;21.88;11.20;;;21.60;99.70;;;;;;4995540;28;20080;-73
2023/09/10 05:09:25;;;;;;;15.68;9.15;;;21.90;97.50;;;;;;4995086;28;20154;-73
2023/09/10 05:11:56;;;;;;;13.70;9.10;;;22.20;96.60;;;;;;4995061;28;20041;-73
2023/09/10 05:14:22;;;;;;;13.60;8.57;;;22.60;94.80;;;;;;4994895;28;20092;-74
2023/09/10 05:16:48;;;;;;;19.17;8.80;;;22.80;94.30;;;;;;5011987;28;20057;-73
2023/09/10 05:19:14;;;;;;;13.55;8.88;;;22.90;93.90;;;;;;4994656;28;20445;-73
2023/09/10 05:21:40;;;;;;;17.38;8.98;;;23.30;94.10;;;;;;4995065;28;20057;-74
2023/09/10 05:24:07;;;;;;;19.10;10.18;;;23.30;95.00;;;;;;4994778;28;20386;-73
2023/09/10 05:26:34;;;;;;;18.98;10.63;;;23.30;94.30;;;;;;4994426;28;20033;-73
2023/09/10 05:29:00;;;;;;;19.63;9.77;;;22.70;97.60;;;;;;4990304;28;20026;-73
2023/09/10 05:31:25;;;;;;;15.00;9.05;;;22.50;97.90;;;;;;4993302;28;20110;-74
2023/09/10 05:33:51;;;;;;;17.63;9.07;;;22.20;98.10;;;;;;4992024;28;20117;-73
2023/09/10 05:36:17;;;;;;;15.23;8.95;;;21.90;98.50;;;;;;4993011;28;20029;-74
2023/09/10 05:38:43;;;;;;;13.20;8.25;;;21.80;99.80;;;;;;5010787;28;20100;-73
2023/09/10 05:41:09;;;;;;;13.90;8.48;;;21.70;99.90;;;;;;5011124;28;20474;-73
2023/09/10 05:43:35;;;;;;;19.50;10.23;;;21.60;99.90;;;;;;5010524;28;20385;-73
2023/09/10 05:46:01;;;;;;;16.80;9.10;;;21.40;99.90;;;;;;4981151;28;20030;-73
2023/09/10 05:48:27;;;;;;;13.38;8.75;;;21.30;99.90;;;;;;5008912;28;20041;-72
2023/09/10 05:50:57;;;;;;;16.77;8.95;;;21.30;99.90;;;;;;5010782;28;20494;-72
2023/09/10 05:53:24;;;;;;;14.40;8.50;;;21.40;99.90;;;;;;4994591;28;20077;-72
2023/09/10 05:55:50;;;;;;;14.15;8.52;;;21.30;99.90;;;;;;4994427;28;20350;-72
2023/09/10 05:58:16;;;;;;;18.90;8.38;;;21.30;99.90;;;;;;5010824;28;20014;-72
2023/09/10 06:00:43;;;;;;;16.60;9.13;;;21.40;99.90;;;;;;4994228;28;20056;-72
2023/09/10 06:03:09;;;;;;;15.05;8.73;;;21.50;99.90;;;;;;4994524;28;20070;-73
2023/09/10 06:05:36;;;;;;;13.55;8.10;;;21.50;99.90;;;;;;4994465;28;20121;-73
2023/09/10 06:08:02;;;;;;;21.85;10.13;;;21.60;99.90;;;;;;4999195;28;20064;-72
2023/09/10 06:10:29;;;;;;;15.10;8.52;;;21.70;99.90;;;;;;4994411;28;20061;-73
2023/09/10 06:12:54;;;;;;;20.08;8.45;;;21.70;99.90;;;;;;4997703;28;20068;-73
2023/09/10 06:15:21;;;;;;;13.80;8.65;;;21.80;99.90;;;;;;5012108;28;20092;-73
2023/09/10 06:17:46;;;;;;;16.80;8.13;;;21.90;99.90;;;;;;4993976;28;20032;-73
2023/09/10 06:20:13;;;;;;;15.32;7.53;;;21.80;99.90;;;;;;4994482;28;20120;-73
2023/09/10 06:22:39;;;;;;;12.88;7.72;;;21.80;99.90;;;;;;4994469;28;20109;-73
2023/09/10 06:25:06;;;;;;;17.15;8.00;;;21.90;99.90;;;;;;4994215;28;20084;-72
2023/09/10 06:27:32;;;;;;;15.40;8.73;;;21.90;99.90;;;;;;5010393;28;20029;-73
2023/09/10 06:29:57;;;;;;;15.93;8.00;;;22.00;99.90;;;;;;5011849;28;20389;-72
2023/09/10 06:32:23;;;;;;;15.13;7.95;;;22.00;99.80;;;;;;4993903;28;20033;-72
2023/09/10 06:34:49;;;;;;;14.05;8.00;;;22.00;99.70;;;;;;4994043;28;20144;-73
2023/09/10 06:37:15;;;;;;;13.43;7.22;;;22.10;99.90;;;;;;5010902;28;20109;-73
2023/09/10 06:39:43;;;;;;;13.10;8.48;;;22.00;99.90;;;;;;4994273;28;20494;-72
2023/09/10 06:42:12;;;;;;;11.85;7.50;;;22.20;99.90;;;;;;4984570;28;20387;-73
2023/09/10 06:44:43;;;;;;;14.10;8.00;;;22.40;99.60;;;;;;4979065;28;20370;-72
2023/09/10 06:47:09;;;;;;;13.40;7.88;;;22.40;98.20;;;;;;4998495;28;20054;-73
2023/09/10 06:49:35;;;;;;;14.95;8.57;;;22.40;98.50;;;;;;4998945;28;20352;-73
2023/09/10 06:52:01;;;;;;;16.33;8.38;;;22.40;98.90;;;;;;5005064;28;20033;-73
2023/09/10 06:54:27;;;;;;;14.77;8.65;;;22.30;98.80;;;;;;5005021;28;20168;-73
2023/09/10 06:56:53;;;;;;;18.50;8.73;;;22.50;98.40;;;;;;4999199;28;20060;-72
2023/09/10 06:59:19;;;;;;;13.50;8.07;;;22.60;99.90;;;;;;5011304;28;20029;-73
2023/09/10 07:01:44;;;;;;;15.88;7.60;;;23.00;99.90;;;;;;4993991;28;20041;-73
2023/09/10 07:04:17;;;;;;;13.00;7.22;;;;;;;;;;5011881;28;20022;-73
2023/09/10 07:06:45;;;;;;;15.85;8.30;;;23.20;96.40;;;;;;5011307;28;20029;-73
2023/09/10 07:09:11;;;;;;;17.83;8.15;;;23.40;94.70;;;;;;5005830;28;20042;-73
2023/09/10 07:11:37;;;;;;;17.92;7.65;;;23.60;94.80;;;;;;5008698;28;20014;-73
2023/09/10 07:14:03;;;;;;;12.48;6.80;;;23.60;94.10;;;;;;5003426;28;20054;-73
2023/09/10 07:16:29;;;;;;;13.95;7.00;;;23.50;94.70;;;;;;4984755;28;20132;-72
2023/09/10 07:18:55;;;;;;;14.25;7.50;;;23.70;95.10;;;;;;5008892;28;20030;-73
2023/09/10 07:21:21;;;;;;;14.63;8.40;;;24.00;95.50;;;;;;5015256;28;20085;-73
2023/09/10 07:23:46;;;;;;;16.48;9.07;;;24.10;94.10;;;;;;5014759;28;20026;-73
2023/09/10 07:26:12;;;;;;;14.45;8.05;;;24.30;94.10;;;;;;5015157;28;20454;-73
2023/09/10 07:28:38;;;;;;;18.83;8.45;;;24.30;94.00;;;;;;5014933;28;20080;-73
2023/09/10 07:31:04;;;;;;;22.20;10.50;;;24.60;94.00;;;;;;5015121;28;20433;-73
2023/09/10 07:33:30;;;;;;;17.45;8.40;;;24.70;93.70;;;;;;5014680;28;20056;-72
2023/09/10 07:35:56;;;;;;;14.73;8.57;;;24.90;92.60;;;;;;5014643;28;20464;-73
2023/09/10 07:38:22;;;;;;;19.73;8.70;;;25.20;92.30;;;;;;5014374;28;20080;-73
2023/09/10 07:40:47;;;;;;;16.67;8.73;;;25.10;92.40;;;;;;5014697;28;20390;-73
2023/09/10 07:43:13;;;;;;;13.30;7.72;;;25.30;92.10;;;;;;5014401;28;20026;-72
2023/09/10 07:45:39;;;;;;;12.98;7.22;;;25.60;91.00;;;;;;5014735;28;20424;-73
2023/09/10 07:48:06;;;;;;;10.85;6.82;;;25.80;92.00;;;;;;5014625;28;20037;-73
2023/09/10 07:50:32;;;;;;;12.20;7.13;;;26.00;90.80;;;;;;5014426;28;20026;-72
2023/09/10 07:52:58;;;;;;;13.82;7.72;;;26.10;91.10;;;;;;5014372;28;20053;-73
2023/09/10 07:55:25;;;;;;;15.52;8.52;;;26.30;91.40;;;;;;5014409;28;20048;-73
2023/09/10 07:57:50;;;;;;;16.27;8.25;;;26.30;90.50;;;;;;5014454;28;20030;-73
2023/09/10 08:00:17;;;;;;;13.82;7.95;;;26.40;90.80;;;;;;4996177;28;20168;-73
2023/09/10 08:02:43;;;;;;;15.82;7.20;;;26.40;88.80;;;;;;4996541;28;20100;-73
2023/09/10 08:05:09;;;;;;;14.20;8.32;;;26.40;88.60;;;;;;5014065;28;20169;-73
2023/09/10 08:07:35;;;;;;;13.38;8.00;;;26.30;85.80;;;;;;5014197;28;20121;-73
2023/09/10 08:10:01;;;;;;;16.52;7.75;;;26.40;86.40;;;;;;5013887;28;20065;-72
2023/09/10 08:12:27;;;;;;;18.02;7.85;;;26.20;89.60;;;;;;5013977;28;20486;-73
2023/09/10 08:14:53;;;;;;;15.80;7.20;;;26.10;89.80;;;;;;5013980;28;20026;-73
2023/09/10 08:17:19;;;;;;;12.48;8.18;;;26.10;90.40;;;;;;5013691;28;20377;-73
2023/09/10 08:19:45;;;;;;;18.00;8.57;;;25.70;90.50;;;;;;5014151;28;20500;-73
2023/09/10 08:22:11;;;;;;;14.32;7.57;;;25.00;89.80;;;;;;5012749;28;20034;-73
2023/09/10 08:24:37;;;;;;;14.07;8.43;;;25.40;90.50;;;;;;5004687;28;20026;-73
2023/09/10 08:27:03;;;;;;;16.60;8.57;;;25.30;90.00;;;;;;5013677;28;20077;-73
2023/09/10 08:29:29;;;;;;;14.70;8.57;;;25.30;90.40;;;;;;5013808;28;20094;-72
2023/09/10 08:31:56;;;;;;;14.13;9.10;;;25.70;91.60;;;;;;5013532;28;20030;-73
2023/09/10 08:34:22;;;;;;;14.60;9.00;;;25.90;89.00;;;;;;5013408;28;20061;-72
2023/09/10 08:36:48;;;;;;;21.00;11.52;;;25.80;88.60;;;;;;5012940;28;20096;-72
2023/09/10 08:39:14;;;;;;;16.70;11.25;;;26.20;90.00;;;;;;4995672;28;20490;-73
2023/09/10 08:42:01;;;;;;;18.25;10.65;;;26.50;89.90;;;;;;5013661;28;20048;-73
2023/09/10 08:44:29;;;;;;;17.63;10.50;;;26.70;89.30;;;;;;5013262;28;20025;-73
2023/09/10 08:47:00;;;;;;;24.25;11.85;;;26.70;83.70;;;;;;4995453;28;20118;-72
2023/09/10 08:49:28;;;;;;;15.77;10.07;;;26.80;84.30;;;;;;5013286;28;20033;-73
2023/09/10 08:51:55;;;;;;;20.92;13.65;;;26.90;84.90;;;;;;5013053;28;20138;-72
2023/09/10 08:54:21;;;;;;;18.38;11.52;;;26.70;82.70;;;;;;5013205;28;20482;-73
2023/09/10 08:56:48;;;;;;;18.70;11.40;;;27.00;85.50;;;;;;5012486;28;20025;-73
2023/09/10 08:59:15;;;;;;;19.95;10.10;;;27.20;83.00;;;;;;5005986;28;20026;-73
2023/09/10 09:01:44;;;;;;;16.60;9.32;;;27.30;84.30;;;;;;5002832;28;20030;-72
2023/09/10 09:04:12;;;;;;;16.52;8.07;;;27.60;83.10;;;;;;4999797;28;20022;-73
2023/09/10 09:06:40;;;;;;;16.83;11.13;;;27.80;82.50;;;;;;5011616;28;20506;-73
2023/09/10 09:09:07;;;;;;;16.15;9.98;;;27.80;79.40;;;;;;5012836;28;20056;-73
2023/09/10 09:11:35;;;;;;;17.75;11.90;;;27.80;79.20;;;;;;5013176;28;20104;-73
2023/09/10 09:14:07;;;;;;;18.38;10.45;;;27.80;82.30;;;;;;5012198;28;20073;-73
2023/09/10 09:16:34;;;;;;;16.75;11.63;;;27.90;79.20;;;;;;5013178;28;20034;-72
2023/09/10 09:19:05;;;;;;;14.40;8.50;;;27.90;78.50;;;;;;5012462;28;20033;-73
2023/09/10 09:21:31;;;;;;;20.60;10.48;;;27.70;77.50;;;;;;5013008;28;20116;-73
2023/09/10 09:24:01;;;;;;;13.20;9.40;;;27.90;78.80;;;;;;5012431;28;20025;-72
2023/09/10 09:26:28;;;;;;;19.00;11.68;;;27.90;78.20;;;;;;5012753;28;20113;-73
2023/09/10 09:28:57;;;;;;;16.83;9.93;;;27.90;78.70;;;;;;5012385;28;20054;-72
2023/09/10 09:31:25;;;;;;;21.08;11.68;;;28.00;80.20;;;;;;5012585;28;20088;-72
2023/09/10 09:33:51;;;;;;;20.05;12.05;;;;;;;;;;5012395;28;20049;-72
2023/09/10 09:36:17;;;;;;;21.02;11.40;;;27.70;77.10;;;;;;5012473;28;20517;-73
2023/09/10 09:38:48;;;;;;;15.93;10.30;;;27.90;78.60;;;;;;5012542;28;20037;-73
2023/09/10 09:41:14;;;;;;;16.02;8.13;;;27.80;77.10;;;;;;5012511;28;20539;-73
2023/09/10 09:43:40;;;;;;;12.65;5.70;;;28.20;80.20;;;;;;5015622;28;20022;-72
2023/09/10 09:46:06;;;;;;;6.63;4.60;;;27.70;74.70;;;;;;5022001;28;20038;-73
2023/09/10 09:48:34;;;;;;;14.52;6.28;;;27.60;73.20;;;;;;5011800;28;20032;-73
2023/09/10 09:51:01;;;;;;;8.07;4.47;;;27.80;74.70;;;;;;5012411;28;20033;-72
2023/09/10 09:53:30;;;;;;;10.73;4.90;;;27.90;74.40;;;;;;5011686;28;20109;-72
2023/09/10 09:56:06;;;;;;;9.80;5.22;;;27.90;71.90;;;;;;5012419;28;20470;-74
2023/09/10 09:58:33;;;;;;;9.35;4.82;;;28.40;76.90;;;;;;4994676;28;20026;-73
2023/09/10 10:00:59;;;;;;;8.75;4.88;;;28.70;75.70;;;;;;5012455;28;20428;-73
2023/09/10 10:03:26;;;;;;;19.52;6.65;;;;;;;;;;5011976;28;20033;-73
2023/09/10 10:05:53;;;;;;;11.18;4.65;;;;;;;;;;5012077;28;20400;-73
2023/09/10 10:08:24;;;;;;;8.55;4.70;;;;;;;;;;5011738;28;20025;-72
2023/09/10 10:10:50;;;;;;;12.48;4.82;;;;;;;;;;5011965;28;20088;-72
2023/09/10 10:13:18;;;;;;;6.90;3.83;;;29.10;71.60;;;;;;5012064;28;20026;-72
2023/09/10 10:15:52;;;;;;;9.90;4.82;;;29.30;90.10;;;;;;5001210;28;20034;-74
2023/09/10 10:18:21;;;;;;;6.47;4.00;;;29.70;90.10;;;;;;5012291;28;20041;-73
2023/09/10 10:20:49;;;;;;;7.90;4.35;;;28.70;88.50;;;;;;4994133;28;20086;-73
2023/09/10 10:23:20;;;;;;;8.25;3.35;;;28.90;87.20;;;;;;5011969;28;20485;-73
2023/09/10 10:25:47;;;;;;;7.80;3.70;;;28.70;85.20;;;;;;5011693;28;20052;-72
2023/09/10 10:28:13;;;;;;;7.78;4.00;;;28.80;86.40;;;;;;5012218;28;20481;-73
2023/09/10 10:31:04;;;;;;;8.55;4.43;;;29.00;90.00;;;;;;5011982;28;20029;-72
2023/09/10 10:33:33;;;;;;;5.53;3.63;;;29.20;91.10;;;;;;5011954;28;20029;-73
2023/09/10 10:36:06;;;;;;;9.25;3.78;;;;;;;;;;5011564;28;20307;-71
2023/09/10 10:38:33;;;;;;;7.18;3.45;;;;;;;;;;5011960;28;20025;-72
2023/09/10 10:41:04;;;;;;;7.45;3.60;;;;;;;;;;5011479;28;20029;-73
2023/09/10 10:43:32;;;;;;;5.78;3.63;;;;;;;;;;5012098;28;20018;-72
2023/09/10 10:46:00;;;;;;;7.93;3.83;;;29.40;68.70;;;;;;5015627;28;20038;-73
2023/09/10 10:48:32;;;;;;;6.60;3.65;;;29.50;78.50;;;;;;5015273;28;20477;-72
2023/09/10 10:51:00;;;;;;;8.65;3.55;;;;;;;;;;5015710;28;20026;-73
2023/09/10 10:53:26;;;;;;;9.85;4.82;;;;;;;;;;5015162;28;20022;-73
2023/09/10 10:56:03;;;;;;;6.60;3.83;;;29.60;71.20;;;;;;5015811;28;20037;-73
2023/09/10 10:58:29;;;;;;;7.40;4.22;;;;;;;;;;5015377;28;20018;-73
2023/09/10 11:00:58;;;;;;;6.57;3.92;;;29.60;69.60;;;;;;5015115;28;20104;-73
2023/09/10 11:03:25;;;;;;;8.18;3.60;;;29.70;72.50;;;;;;5015603;28;20052;-73
2023/09/10 11:05:54;;;;;;;6.13;3.67;;;29.80;86.50;;;;;;5014774;28;20069;-73
2023/09/10 11:08:30;;;;;;;5.45;3.85;;;29.70;80.00;;;;;;5015566;28;20057;-73
2023/09/10 11:10:57;;;;;;;10.40;3.75;;;;;;;;;;5014957;28;20034;-73
2023/09/10 11:13:23;;;;;;;5.50;3.20;;;;;;;;;;5015353;28;20071;-73
2023/09/10 11:16:04;;;;;;;6.15;2.97;;;29.80;72.40;;;;;;5014670;28;20104;-72
2023/09/10 11:18:36;;;;;;;9.07;3.53;;;29.90;79.70;;;;;;5015088;28;20038;-73
2023/09/10 11:21:10;;;;;;;5.45;3.30;;;29.60;68.00;;;;;;5013824;28;20073;-72
2023/09/10 11:23:38;;;;;;;7.53;3.42;;;29.50;68.60;;;;;;5004121;28;20065;-73
2023/09/10 11:26:13;;;;;;;5.65;3.58;;;29.50;67.40;;;;;;5002033;28;20485;-73
2023/09/10 11:28:52;;;;;;;5.28;3.28;;;29.50;69.40;;;;;;5004263;28;20029;-73
2023/09/10 11:31:33;;;;;;;6.65;3.45;;;29.50;69.60;;;;;;4987552;28;20052;-73
2023/09/10 11:34:17;;;;;;;6.78;3.63;;;29.50;69.50;;;;;;5001884;28;20030;-74
2023/09/10 11:36:47;;;;;;;3.95;2.90;;;29.60;71.40;;;;;;4984592;28;20030;-73
2023/09/10 11:39:14;;;;;;;6.50;3.08;;;29.50;69.70;;;;;;5005644;28;20023;-74
2023/09/10 11:41:45;;;;;;;5.97;3.70;;;29.50;68.60;;;;;;5008202;28;20109;-73
2023/09/10 11:44:11;;;;;;;8.57;3.92;;;29.40;69.70;;;;;;5005429;28;20045;-74
2023/09/10 11:46:37;;;;;;;6.70;3.15;;;29.50;72.50;;;;;;5001461;28;20025;-72
2023/09/10 11:49:04;;;;;;;6.18;3.58;;;29.60;71.40;;;;;;4986270;28;20359;-71
2023/09/10 11:51:30;;;;;;;6.47;3.70;;;29.60;70.50;;;;;;5012481;28;20404;-72
2023/09/10 11:54:00;;;;;;;6.65;3.97;;;29.50;68.80;;;;;;5014728;28;20022;-72
2023/09/10 11:56:26;;;;;;;6.03;3.92;;;29.50;69.60;;;;;;5013078;28;20056;-72
2023/09/10 11:58:55;;;;;;;5.13;3.63;;;29.60;70.10;;;;;;5014737;28;20034;-72
2023/09/10 12:01:21;;;;;;;6.43;3.78;;;29.60;70.30;;;;;;5014124;28;20061;-72
2023/09/10 12:03:47;;;;;;;8.80;4.22;;;29.70;70.90;;;;;;5014277;28;20030;-72
2023/09/10 12:06:13;;;;;;;9.57;4.18;;;29.70;69.20;;;;;;5013991;28;20034;-72
2023/09/10 12:08:39;;;;;;;6.15;3.95;;;29.70;71.70;;;;;;5013658;28;20037;-72
2023/09/10 12:11:10;;;;;;;7.43;3.55;;;29.70;70.70;;;;;;5001275;28;20030;-72
2023/09/10 12:13:36;;;;;;;7.05;3.67;;;29.60;69.40;;;;;;5013723;28;20113;-72
2023/09/10 12:16:04;;;;;;;6.32;3.90;;;29.20;68.60;;;;;;5014338;28;20116;-72
2023/09/10 12:18:31;;;;;;;6.35;4.40;;;29.10;69.90;;;;;;5013857;28;20458;-72
2023/09/10 12:21:00;;;;;;;8.70;3.45;;;29.10;68.90;;;;;;5014081;28;20436;-72
2023/09/10 12:23:26;;;;;;;5.00;3.60;;;29.20;67.40;;;;;;5013662;28;20084;-71
2023/09/10 12:25:56;;;;;;;5.18;3.55;;;29.20;69.10;;;;;;5013930;28;20026;-72
2023/09/10 12:28:23;;;;;;;5.38;3.20;;;29.30;71.40;;;;;;5013823;28;20045;-72
2023/09/10 12:30:50;;;;;;;6.70;3.78;;;29.20;68.80;;;;;;5013547;28;20030;-71
2023/09/10 12:33:16;;;;;;;4.53;3.55;;;29.20;68.00;;;;;;5013854;28;20473;-72
2023/09/10 12:35:42;;;;;;;13.93;3.53;;;29.20;68.50;;;;;;5013366;28;20058;-73
2023/09/10 12:38:08;;;;;;;7.57;3.70;;;29.30;69.50;;;;;;5013772;28;20034;-71
2023/09/10 12:40:36;;;;;;;6.70;4.30;;;29.30;68.20;;;;;;5013282;28;20030;-72
2023/09/10 12:43:02;;;;;;;7.63;3.80;;;29.20;67.90;;;;;;5013711;28;20030;-72
2023/09/10 12:45:28;;;;;;;8.45;4.18;;;29.30;70.60;;;;;;5013094;28;20026;-72